sensor_id;sensor_type;location;lat;lon;timestamp;P1;durP1;ratioP1;P2;durP2;ratioP2
31786;SDS011;18356;52.380;9.820;2022-12-18T00:00:02;57.90;;;28.63;;
31786;SDS011;18356;52.380;9.820;2022-12-18T00:02:28;53.33;;;28.10;;
31786;SDS011;18356;52.380;9.820;2022-12-18T00:04:54;57.83;;;27.53;;
31786;SDS011;18356;52.380;9.820;2022-12-18T00:07:20;54.73;;;28.33;;
31786;SDS011;18356;52.380;9.820;2022-12-18T00:09:46;53.10;;;26.43;;
31786;SDS011;18356;52.380;9.820;2022-12-18T00:12:12;53.80;;;28.40;;
31786;SDS011;18356;52.380;9.820;2022-12-18T00:14:38;57.83;;;29.03;;
31786;SDS011;18356;52.380;9.820;2022-12-18T00:17:04;54.77;;;26.93;;
31786;SDS011;18356;52.380;9.820;2022-12-18T00:19:30;56.00;;;27.73;;
31786;SDS011;18356;52.380;9.820;2022-12-18T00:21:56;54.23;;;28.53;;
31786;SDS011;18356;52.380;9.820;2022-12-18T00:24:23;52.73;;;27.90;;
31786;SDS011;18356;52.380;9.820;2022-12-18T00:26:49;55.33;;;28.30;;
31786;SDS011;18356;52.380;9.820;2022-12-18T00:29:15;53.87;;;28.07;;
31786;SDS011;18356;52.380;9.820;2022-12-18T00:31:41;53.63;;;28.43;;
31786;SDS011;18356;52.380;9.820;2022-12-18T00:34:09;55.83;;;27.30;;
31786;SDS011;18356;52.380;9.820;2022-12-18T00:36:35;52.37;;;26.90;;
31786;SDS011;18356;52.380;9.820;2022-12-18T00:39:03;53.33;;;26.53;;
31786;SDS011;18356;52.380;9.820;2022-12-18T00:41:29;57.10;;;28.23;;
31786;SDS011;18356;52.380;9.820;2022-12-18T00:44:14;51.57;;;26.00;;
31786;SDS011;18356;52.380;9.820;2022-12-18T00:46:41;52.80;;;25.93;;
31786;SDS011;18356;52.380;9.820;2022-12-18T00:49:07;53.47;;;26.73;;
31786;SDS011;18356;52.380;9.820;2022-12-18T00:51:33;53.77;;;27.20;;
31786;SDS011;18356;52.380;9.820;2022-12-18T00:53:59;50.20;;;26.00;;
31786;SDS011;18356;52.380;9.820;2022-12-18T00:56:26;54.83;;;26.70;;
31786;SDS011;18356;52.380;9.820;2022-12-18T00:58:51;51.37;;;24.67;;
31786;SDS011;18356;52.380;9.820;2022-12-18T01:01:17;51.07;;;26.13;;
31786;SDS011;18356;52.380;9.820;2022-12-18T01:03:44;50.87;;;26.17;;
31786;SDS011;18356;52.380;9.820;2022-12-18T01:06:12;49.60;;;25.47;;
31786;SDS011;18356;52.380;9.820;2022-12-18T01:08:38;51.83;;;26.27;;
31786;SDS011;18356;52.380;9.820;2022-12-18T01:11:08;50.93;;;26.10;;
31786;SDS011;18356;52.380;9.820;2022-12-18T01:13:35;48.60;;;25.73;;
31786;SDS011;18356;52.380;9.820;2022-12-18T01:16:01;49.07;;;25.10;;
31786;SDS011;18356;52.380;9.820;2022-12-18T01:18:27;51.40;;;25.10;;
31786;SDS011;18356;52.380;9.820;2022-12-18T01:20:53;51.93;;;25.40;;
31786;SDS011;18356;52.380;9.820;2022-12-18T01:23:18;51.03;;;24.87;;
31786;SDS011;18356;52.380;9.820;2022-12-18T01:25:44;51.43;;;25.03;;
31786;SDS011;18356;52.380;9.820;2022-12-18T01:28:10;50.27;;;25.80;;
31786;SDS011;18356;52.380;9.820;2022-12-18T01:30:37;48.83;;;25.47;;
31786;SDS011;18356;52.380;9.820;2022-12-18T01:33:05;51.57;;;25.37;;
31786;SDS011;18356;52.380;9.820;2022-12-18T01:35:31;47.73;;;23.90;;
31786;SDS011;18356;52.380;9.820;2022-12-18T01:37:57;47.50;;;24.43;;
31786;SDS011;18356;52.380;9.820;2022-12-18T01:40:23;47.30;;;24.77;;
31786;SDS011;18356;52.380;9.820;2022-12-18T01:42:53;50.27;;;25.57;;
31786;SDS011;18356;52.380;9.820;2022-12-18T01:45:23;48.17;;;23.73;;
31786;SDS011;18356;52.380;9.820;2022-12-18T01:50:17;58.03;;;26.47;;
31786;SDS011;18356;52.380;9.820;2022-12-18T01:52:45;52.63;;;25.27;;
31786;SDS011;18356;52.380;9.820;2022-12-18T01:55:12;53.30;;;26.83;;
31786;SDS011;18356;52.380;9.820;2022-12-18T01:57:39;53.40;;;26.67;;
31786;SDS011;18356;52.380;9.820;2022-12-18T02:00:07;54.10;;;25.63;;
31786;SDS011;18356;52.380;9.820;2022-12-18T02:02:34;58.23;;;25.60;;
31786;SDS011;18356;52.380;9.820;2022-12-18T02:05:00;51.67;;;25.63;;
31786;SDS011;18356;52.380;9.820;2022-12-18T02:15:08;50.67;;;25.50;;
31786;SDS011;18356;52.380;9.820;2022-12-18T02:17:37;47.93;;;24.47;;
31786;SDS011;18356;52.380;9.820;2022-12-18T02:20:09;50.00;;;25.20;;
31786;SDS011;18356;52.380;9.820;2022-12-18T02:22:44;50.73;;;24.50;;
31786;SDS011;18356;52.380;9.820;2022-12-18T02:27:37;45.13;;;23.93;;
31786;SDS011;18356;52.380;9.820;2022-12-18T02:30:04;45.83;;;23.73;;
31786;SDS011;18356;52.380;9.820;2022-12-18T02:32:31;49.87;;;23.57;;
31786;SDS011;18356;52.380;9.820;2022-12-18T02:34:59;43.77;;;22.80;;
31786;SDS011;18356;52.380;9.820;2022-12-18T02:37:26;47.70;;;23.43;;
31786;SDS011;18356;52.380;9.820;2022-12-18T02:39:54;44.70;;;22.87;;
31786;SDS011;18356;52.380;9.820;2022-12-18T02:42:21;47.27;;;23.23;;
31786;SDS011;18356;52.380;9.820;2022-12-18T02:44:48;46.90;;;22.50;;
31786;SDS011;18356;52.380;9.820;2022-12-18T02:47:16;46.87;;;23.17;;
31786;SDS011;18356;52.380;9.820;2022-12-18T02:49:49;48.30;;;22.73;;
31786;SDS011;18356;52.380;9.820;2022-12-18T02:52:27;47.37;;;23.83;;
31786;SDS011;18356;52.380;9.820;2022-12-18T03:00:03;45.13;;;21.73;;
31786;SDS011;18356;52.380;9.820;2022-12-18T03:05:12;42.47;;;22.17;;
31786;SDS011;18356;52.380;9.820;2022-12-18T03:07:44;42.10;;;21.93;;
31786;SDS011;18356;52.380;9.820;2022-12-18T03:10:13;45.43;;;22.33;;
31786;SDS011;18356;52.380;9.820;2022-12-18T03:12:42;46.30;;;21.77;;
31786;SDS011;18356;52.380;9.820;2022-12-18T03:15:10;43.77;;;21.60;;
31786;SDS011;18356;52.380;9.820;2022-12-18T03:17:38;47.57;;;21.97;;
31786;SDS011;18356;52.380;9.820;2022-12-18T03:20:08;44.70;;;21.13;;
31786;SDS011;18356;52.380;9.820;2022-12-18T03:22:36;40.80;;;21.23;;
31786;SDS011;18356;52.380;9.820;2022-12-18T03:25:04;45.03;;;21.13;;
31786;SDS011;18356;52.380;9.820;2022-12-18T03:27:31;42.63;;;21.47;;
31786;SDS011;18356;52.380;9.820;2022-12-18T03:30:05;40.17;;;20.97;;
31786;SDS011;18356;52.380;9.820;2022-12-18T03:35:10;47.50;;;22.43;;
31786;SDS011;18356;52.380;9.820;2022-12-18T03:37:37;45.93;;;21.30;;
31786;SDS011;18356;52.380;9.820;2022-12-18T03:40:03;51.50;;;22.10;;
31786;SDS011;18356;52.380;9.820;2022-12-18T03:47:43;42.23;;;21.23;;
31786;SDS011;18356;52.380;9.820;2022-12-18T03:50:23;39.43;;;19.63;;
31786;SDS011;18356;52.380;9.820;2022-12-18T03:53:00;40.97;;;20.90;;
31786;SDS011;18356;52.380;9.820;2022-12-18T03:55:30;38.03;;;20.10;;
31786;SDS011;18356;52.380;9.820;2022-12-18T03:57:58;40.37;;;20.67;;
31786;SDS011;18356;52.380;9.820;2022-12-18T04:00:25;40.70;;;19.43;;
31786;SDS011;18356;52.380;9.820;2022-12-18T04:02:52;39.70;;;20.20;;
31786;SDS011;18356;52.380;9.820;2022-12-18T04:05:19;39.20;;;20.63;;
31786;SDS011;18356;52.380;9.820;2022-12-18T04:07:46;42.30;;;21.20;;
31786;SDS011;18356;52.380;9.820;2022-12-18T04:10:13;39.43;;;19.23;;
31786;SDS011;18356;52.380;9.820;2022-12-18T04:12:39;35.97;;;19.47;;
31786;SDS011;18356;52.380;9.820;2022-12-18T04:15:06;42.67;;;20.67;;
31786;SDS011;18356;52.380;9.820;2022-12-18T04:17:32;37.03;;;19.60;;
31786;SDS011;18356;52.380;9.820;2022-12-18T04:19:58;37.33;;;18.73;;
31786;SDS011;18356;52.380;9.820;2022-12-18T04:22:24;38.27;;;18.87;;
31786;SDS011;18356;52.380;9.820;2022-12-18T04:24:50;33.63;;;17.80;;
31786;SDS011;18356;52.380;9.820;2022-12-18T04:27:16;38.53;;;18.77;;
31786;SDS011;18356;52.380;9.820;2022-12-18T04:29:42;36.77;;;19.30;;
31786;SDS011;18356;52.380;9.820;2022-12-18T04:32:08;40.77;;;19.30;;
31786;SDS011;18356;52.380;9.820;2022-12-18T04:34:34;35.73;;;18.13;;
31786;SDS011;18356;52.380;9.820;2022-12-18T04:37:00;39.27;;;19.17;;
31786;SDS011;18356;52.380;9.820;2022-12-18T04:39:26;38.00;;;19.57;;
31786;SDS011;18356;52.380;9.820;2022-12-18T04:41:52;37.33;;;18.87;;
31786;SDS011;18356;52.380;9.820;2022-12-18T04:44:18;35.47;;;18.30;;
31786;SDS011;18356;52.380;9.820;2022-12-18T04:46:44;37.20;;;18.77;;
31786;SDS011;18356;52.380;9.820;2022-12-18T04:49:10;39.43;;;19.00;;
31786;SDS011;18356;52.380;9.820;2022-12-18T04:51:37;35.03;;;18.40;;
31786;SDS011;18356;52.380;9.820;2022-12-18T04:54:03;38.30;;;18.47;;
31786;SDS011;18356;52.380;9.820;2022-12-18T04:56:30;35.53;;;18.00;;
31786;SDS011;18356;52.380;9.820;2022-12-18T04:58:56;33.37;;;18.57;;
31786;SDS011;18356;52.380;9.820;2022-12-18T05:01:22;40.83;;;18.97;;
31786;SDS011;18356;52.380;9.820;2022-12-18T05:03:48;35.23;;;17.87;;
31786;SDS011;18356;52.380;9.820;2022-12-18T05:06:14;41.77;;;18.93;;
31786;SDS011;18356;52.380;9.820;2022-12-18T05:08:40;37.93;;;18.13;;
31786;SDS011;18356;52.380;9.820;2022-12-18T05:11:07;36.80;;;18.53;;
31786;SDS011;18356;52.380;9.820;2022-12-18T05:13:34;36.17;;;18.60;;
31786;SDS011;18356;52.380;9.820;2022-12-18T05:16:00;40.67;;;18.50;;
31786;SDS011;18356;52.380;9.820;2022-12-18T05:18:26;38.63;;;18.53;;
31786;SDS011;18356;52.380;9.820;2022-12-18T05:20:52;39.23;;;19.00;;
31786;SDS011;18356;52.380;9.820;2022-12-18T05:23:19;40.03;;;19.30;;
31786;SDS011;18356;52.380;9.820;2022-12-18T05:28:20;38.37;;;18.53;;
31786;SDS011;18356;52.380;9.820;2022-12-18T05:30:50;41.70;;;17.83;;
31786;SDS011;18356;52.380;9.820;2022-12-18T05:33:17;35.97;;;16.97;;
31786;SDS011;18356;52.380;9.820;2022-12-18T05:35:43;33.87;;;16.87;;
31786;SDS011;18356;52.380;9.820;2022-12-18T05:38:09;33.83;;;17.90;;
31786;SDS011;18356;52.380;9.820;2022-12-18T05:40:35;35.17;;;17.17;;
31786;SDS011;18356;52.380;9.820;2022-12-18T05:43:04;33.70;;;17.60;;
31786;SDS011;18356;52.380;9.820;2022-12-18T05:45:30;35.90;;;18.17;;
31786;SDS011;18356;52.380;9.820;2022-12-18T05:47:56;32.77;;;17.63;;
31786;SDS011;18356;52.380;9.820;2022-12-18T05:50:22;34.07;;;17.60;;
31786;SDS011;18356;52.380;9.820;2022-12-18T05:52:48;37.50;;;18.10;;
31786;SDS011;18356;52.380;9.820;2022-12-18T05:55:14;36.70;;;18.67;;
31786;SDS011;18356;52.380;9.820;2022-12-18T05:57:40;33.83;;;17.87;;
31786;SDS011;18356;52.380;9.820;2022-12-18T06:00:06;38.47;;;18.60;;
31786;SDS011;18356;52.380;9.820;2022-12-18T06:02:32;37.73;;;17.83;;
31786;SDS011;18356;52.380;9.820;2022-12-18T06:04:58;34.57;;;18.43;;
31786;SDS011;18356;52.380;9.820;2022-12-18T06:07:24;38.80;;;18.90;;
31786;SDS011;18356;52.380;9.820;2022-12-18T06:09:50;37.67;;;18.80;;
31786;SDS011;18356;52.380;9.820;2022-12-18T06:12:16;36.30;;;19.00;;
31786;SDS011;18356;52.380;9.820;2022-12-18T06:14:42;37.33;;;18.77;;
31786;SDS011;18356;52.380;9.820;2022-12-18T06:17:08;40.27;;;19.03;;
31786;SDS011;18356;52.380;9.820;2022-12-18T06:19:34;38.33;;;19.30;;
31786;SDS011;18356;52.380;9.820;2022-12-18T06:22:00;39.33;;;19.70;;
31786;SDS011;18356;52.380;9.820;2022-12-18T06:24:26;38.30;;;19.73;;
31786;SDS011;18356;52.380;9.820;2022-12-18T06:26:52;36.80;;;18.53;;
31786;SDS011;18356;52.380;9.820;2022-12-18T06:29:18;38.70;;;18.97;;
31786;SDS011;18356;52.380;9.820;2022-12-18T06:31:44;36.77;;;18.80;;
31786;SDS011;18356;52.380;9.820;2022-12-18T06:34:10;39.50;;;19.07;;
31786;SDS011;18356;52.380;9.820;2022-12-18T06:36:36;39.17;;;19.83;;
31786;SDS011;18356;52.380;9.820;2022-12-18T06:39:02;35.87;;;19.30;;
31786;SDS011;18356;52.380;9.820;2022-12-18T06:41:28;36.93;;;19.97;;
31786;SDS011;18356;52.380;9.820;2022-12-18T06:43:54;39.07;;;19.63;;
31786;SDS011;18356;52.380;9.820;2022-12-18T06:46:20;41.83;;;17.97;;
31786;SDS011;18356;52.380;9.820;2022-12-18T06:48:47;33.57;;;18.40;;
31786;SDS011;18356;52.380;9.820;2022-12-18T06:51:15;39.97;;;19.07;;
31786;SDS011;18356;52.380;9.820;2022-12-18T06:53:41;39.10;;;17.97;;
31786;SDS011;18356;52.380;9.820;2022-12-18T06:56:07;40.37;;;18.90;;
31786;SDS011;18356;52.380;9.820;2022-12-18T06:58:33;38.27;;;18.83;;
31786;SDS011;18356;52.380;9.820;2022-12-18T07:01:00;38.13;;;17.83;;
31786;SDS011;18356;52.380;9.820;2022-12-18T07:03:26;35.47;;;17.93;;
31786;SDS011;18356;52.380;9.820;2022-12-18T07:05:52;40.03;;;19.30;;
31786;SDS011;18356;52.380;9.820;2022-12-18T07:08:18;40.07;;;18.40;;
31786;SDS011;18356;52.380;9.820;2022-12-18T07:10:44;37.13;;;18.83;;
31786;SDS011;18356;52.380;9.820;2022-12-18T07:13:10;36.07;;;17.67;;
31786;SDS011;18356;52.380;9.820;2022-12-18T07:15:36;39.13;;;18.07;;
31786;SDS011;18356;52.380;9.820;2022-12-18T07:18:02;38.73;;;17.83;;
31786;SDS011;18356;52.380;9.820;2022-12-18T07:20:28;34.97;;;18.37;;
31786;SDS011;18356;52.380;9.820;2022-12-18T07:22:54;34.80;;;17.80;;
31786;SDS011;18356;52.380;9.820;2022-12-18T07:25:20;36.33;;;18.13;;
31786;SDS011;18356;52.380;9.820;2022-12-18T07:27:46;37.10;;;18.37;;
31786;SDS011;18356;52.380;9.820;2022-12-18T07:30:12;40.70;;;17.50;;
31786;SDS011;18356;52.380;9.820;2022-12-18T07:32:38;37.17;;;17.53;;
31786;SDS011;18356;52.380;9.820;2022-12-18T07:35:04;37.40;;;17.90;;
31786;SDS011;18356;52.380;9.820;2022-12-18T07:37:30;36.07;;;17.50;;
31786;SDS011;18356;52.380;9.820;2022-12-18T07:39:56;33.97;;;17.67;;
31786;SDS011;18356;52.380;9.820;2022-12-18T07:42:22;31.77;;;17.37;;
31786;SDS011;18356;52.380;9.820;2022-12-18T07:44:58;37.27;;;16.90;;
31786;SDS011;18356;52.380;9.820;2022-12-18T07:47:25;34.30;;;17.27;;
31786;SDS011;18356;52.380;9.820;2022-12-18T07:49:51;36.30;;;18.17;;
31786;SDS011;18356;52.380;9.820;2022-12-18T07:52:17;37.20;;;17.47;;
31786;SDS011;18356;52.380;9.820;2022-12-18T07:54:43;32.67;;;17.40;;
31786;SDS011;18356;52.380;9.820;2022-12-18T07:57:09;36.43;;;18.80;;
31786;SDS011;18356;52.380;9.820;2022-12-18T07:59:36;35.77;;;17.77;;
31786;SDS011;18356;52.380;9.820;2022-12-18T08:02:02;39.53;;;18.77;;
31786;SDS011;18356;52.380;9.820;2022-12-18T08:04:28;36.37;;;17.97;;
31786;SDS011;18356;52.380;9.820;2022-12-18T08:06:54;36.47;;;17.53;;
31786;SDS011;18356;52.380;9.820;2022-12-18T08:09:20;35.63;;;18.57;;
31786;SDS011;18356;52.380;9.820;2022-12-18T08:11:46;33.07;;;16.87;;
31786;SDS011;18356;52.380;9.820;2022-12-18T08:14:12;33.97;;;16.80;;
31786;SDS011;18356;52.380;9.820;2022-12-18T08:16:38;35.23;;;17.30;;
31786;SDS011;18356;52.380;9.820;2022-12-18T08:19:04;35.17;;;16.97;;
31786;SDS011;18356;52.380;9.820;2022-12-18T08:21:30;32.37;;;16.87;;
31786;SDS011;18356;52.380;9.820;2022-12-18T08:23:58;33.10;;;16.93;;
31786;SDS011;18356;52.380;9.820;2022-12-18T08:26:25;38.47;;;17.47;;
31786;SDS011;18356;52.380;9.820;2022-12-18T08:28:52;31.63;;;16.17;;
31786;SDS011;18356;52.380;9.820;2022-12-18T08:31:19;30.40;;;16.00;;
31786;SDS011;18356;52.380;9.820;2022-12-18T08:33:45;36.93;;;17.20;;
31786;SDS011;18356;52.380;9.820;2022-12-18T08:36:11;38.07;;;19.57;;
31786;SDS011;18356;52.380;9.820;2022-12-18T08:38:37;38.80;;;19.80;;
31786;SDS011;18356;52.380;9.820;2022-12-18T08:41:07;41.87;;;21.10;;
31786;SDS011;18356;52.380;9.820;2022-12-18T08:43:33;34.63;;;19.00;;
31786;SDS011;18356;52.380;9.820;2022-12-18T08:46:19;39.70;;;19.73;;
31786;SDS011;18356;52.380;9.820;2022-12-18T08:48:45;39.60;;;20.60;;
31786;SDS011;18356;52.380;9.820;2022-12-18T08:51:11;37.50;;;20.83;;
31786;SDS011;18356;52.380;9.820;2022-12-18T08:53:37;37.13;;;19.40;;
31786;SDS011;18356;52.380;9.820;2022-12-18T08:56:04;35.80;;;19.30;;
31786;SDS011;18356;52.380;9.820;2022-12-18T08:58:30;39.43;;;19.70;;
31786;SDS011;18356;52.380;9.820;2022-12-18T09:01:00;34.70;;;16.47;;
31786;SDS011;18356;52.380;9.820;2022-12-18T09:03:26;37.50;;;18.77;;
31786;SDS011;18356;52.380;9.820;2022-12-18T09:05:52;32.60;;;17.73;;
31786;SDS011;18356;52.380;9.820;2022-12-18T09:08:18;28.77;;;16.27;;
31786;SDS011;18356;52.380;9.820;2022-12-18T09:10:45;33.20;;;16.97;;
31786;SDS011;18356;52.380;9.820;2022-12-18T09:13:11;32.03;;;16.53;;
31786;SDS011;18356;52.380;9.820;2022-12-18T09:15:41;34.70;;;17.17;;
31786;SDS011;18356;52.380;9.820;2022-12-18T09:18:07;32.60;;;14.03;;
31786;SDS011;18356;52.380;9.820;2022-12-18T09:20:34;30.87;;;16.93;;
31786;SDS011;18356;52.380;9.820;2022-12-18T09:23:00;32.30;;;17.13;;
31786;SDS011;18356;52.380;9.820;2022-12-18T09:25:26;31.53;;;16.53;;
31786;SDS011;18356;52.380;9.820;2022-12-18T09:27:56;29.77;;;13.40;;
31786;SDS011;18356;52.380;9.820;2022-12-18T09:30:22;31.40;;;13.57;;
31786;SDS011;18356;52.380;9.820;2022-12-18T09:32:48;24.13;;;12.23;;
31786;SDS011;18356;52.380;9.820;2022-12-18T09:35:14;28.17;;;13.27;;
31786;SDS011;18356;52.380;9.820;2022-12-18T09:37:40;29.37;;;13.03;;
31786;SDS011;18356;52.380;9.820;2022-12-18T09:40:12;31.80;;;13.60;;
31786;SDS011;18356;52.380;9.820;2022-12-18T09:42:38;31.43;;;13.80;;
31786;SDS011;18356;52.380;9.820;2022-12-18T09:45:04;25.30;;;13.03;;
31786;SDS011;18356;52.380;9.820;2022-12-18T09:47:32;30.87;;;12.53;;
31786;SDS011;18356;52.380;9.820;2022-12-18T09:50:02;25.43;;;12.60;;
31786;SDS011;18356;52.380;9.820;2022-12-18T09:52:30;30.70;;;12.27;;
31786;SDS011;18356;52.380;9.820;2022-12-18T09:55:05;29.27;;;12.43;;
31786;SDS011;18356;52.380;9.820;2022-12-18T09:57:35;29.90;;;12.43;;
31786;SDS011;18356;52.380;9.820;2022-12-18T10:02:37;27.57;;;13.03;;
31786;SDS011;18356;52.380;9.820;2022-12-18T10:05:04;28.63;;;13.63;;
31786;SDS011;18356;52.380;9.820;2022-12-18T10:07:49;27.30;;;12.70;;
31786;SDS011;18356;52.380;9.820;2022-12-18T10:10:23;24.13;;;13.20;;
31786;SDS011;18356;52.380;9.820;2022-12-18T10:12:59;29.77;;;13.20;;
31786;SDS011;18356;52.380;9.820;2022-12-18T10:21:04;29.87;;;12.60;;
31786;SDS011;18356;52.380;9.820;2022-12-18T10:28:32;29.10;;;13.07;;
31786;SDS011;18356;52.380;9.820;2022-12-18T10:31:01;25.60;;;12.87;;
31786;SDS011;18356;52.380;9.820;2022-12-18T10:33:28;23.07;;;10.63;;
31786;SDS011;18356;52.380;9.820;2022-12-18T10:35:55;27.63;;;11.20;;
31786;SDS011;18356;52.380;9.820;2022-12-18T10:38:22;23.00;;;10.83;;
31786;SDS011;18356;52.380;9.820;2022-12-18T10:43:15;23.83;;;12.47;;
31786;SDS011;18356;52.380;9.820;2022-12-18T10:45:56;28.07;;;12.10;;
31786;SDS011;18356;52.380;9.820;2022-12-18T10:48:23;27.30;;;12.97;;
31786;SDS011;18356;52.380;9.820;2022-12-18T10:50:50;23.17;;;11.83;;
31786;SDS011;18356;52.380;9.820;2022-12-18T10:53:23;25.77;;;12.37;;
31786;SDS011;18356;52.380;9.820;2022-12-18T10:55:50;27.70;;;11.67;;
31786;SDS011;18356;52.380;9.820;2022-12-18T11:03:38;33.20;;;15.33;;
31786;SDS011;18356;52.380;9.820;2022-12-18T11:06:18;30.63;;;14.30;;
31786;SDS011;18356;52.380;9.820;2022-12-18T11:08:57;24.17;;;12.23;;
31786;SDS011;18356;52.380;9.820;2022-12-18T11:11:32;24.33;;;10.53;;
31786;SDS011;18356;52.380;9.820;2022-12-18T11:14:05;19.87;;;10.17;;
31786;SDS011;18356;52.380;9.820;2022-12-18T11:16:43;19.50;;;10.40;;
31786;SDS011;18356;52.380;9.820;2022-12-18T11:19:12;21.03;;;9.77;;
31786;SDS011;18356;52.380;9.820;2022-12-18T11:21:39;20.40;;;10.07;;
31786;SDS011;18356;52.380;9.820;2022-12-18T11:24:07;20.97;;;10.10;;
31786;SDS011;18356;52.380;9.820;2022-12-18T11:26:43;27.53;;;10.70;;
31786;SDS011;18356;52.380;9.820;2022-12-18T11:29:10;22.13;;;10.87;;
31786;SDS011;18356;52.380;9.820;2022-12-18T11:31:42;22.13;;;11.57;;
31786;SDS011;18356;52.380;9.820;2022-12-18T11:34:12;22.43;;;10.67;;
31786;SDS011;18356;52.380;9.820;2022-12-18T11:36:43;23.33;;;11.93;;
31786;SDS011;18356;52.380;9.820;2022-12-18T11:41:50;25.63;;;12.00;;
31786;SDS011;18356;52.380;9.820;2022-12-18T11:44:58;25.57;;;12.77;;
31786;SDS011;18356;52.380;9.820;2022-12-18T11:50:02;27.57;;;12.63;;
31786;SDS011;18356;52.380;9.820;2022-12-18T11:52:38;24.53;;;12.20;;
31786;SDS011;18356;52.380;9.820;2022-12-18T11:55:09;29.17;;;13.23;;
31786;SDS011;18356;52.380;9.820;2022-12-18T12:00:04;34.93;;;12.23;;
31786;SDS011;18356;52.380;9.820;2022-12-18T12:02:57;23.90;;;12.50;;
31786;SDS011;18356;52.380;9.820;2022-12-18T12:10:32;33.87;;;15.87;;
31786;SDS011;18356;52.380;9.820;2022-12-18T12:13:43;26.70;;;13.73;;
31786;SDS011;18356;52.380;9.820;2022-12-18T12:18:44;22.17;;;10.43;;
31786;SDS011;18356;52.380;9.820;2022-12-18T12:29:00;25.13;;;11.10;;
31786;SDS011;18356;52.380;9.820;2022-12-18T12:36:44;26.67;;;12.30;;
31786;SDS011;18356;52.380;9.820;2022-12-18T12:39:14;28.17;;;12.30;;
31786;SDS011;18356;52.380;9.820;2022-12-18T12:41:42;30.17;;;13.93;;
31786;SDS011;18356;52.380;9.820;2022-12-18T12:44:39;33.53;;;14.77;;
31786;SDS011;18356;52.380;9.820;2022-12-18T12:47:15;39.13;;;16.37;;
31786;SDS011;18356;52.380;9.820;2022-12-18T12:49:45;33.77;;;15.97;;
31786;SDS011;18356;52.380;9.820;2022-12-18T12:52:17;34.57;;;15.53;;
31786;SDS011;18356;52.380;9.820;2022-12-18T12:54:46;31.40;;;15.03;;
31786;SDS011;18356;52.380;9.820;2022-12-18T13:02:39;44.00;;;19.27;;
31786;SDS011;18356;52.380;9.820;2022-12-18T13:07:57;37.70;;;17.80;;
31786;SDS011;18356;52.380;9.820;2022-12-18T13:10:26;39.37;;;16.87;;
31786;SDS011;18356;52.380;9.820;2022-12-18T13:12:57;36.33;;;16.77;;
31786;SDS011;18356;52.380;9.820;2022-12-18T13:15:25;34.97;;;15.93;;
31786;SDS011;18356;52.380;9.820;2022-12-18T13:20:44;37.60;;;16.47;;
31786;SDS011;18356;52.380;9.820;2022-12-18T13:23:23;40.63;;;19.00;;
31786;SDS011;18356;52.380;9.820;2022-12-18T13:25:51;40.17;;;17.70;;
31786;SDS011;18356;52.380;9.820;2022-12-18T13:30:56;40.83;;;18.53;;
31786;SDS011;18356;52.380;9.820;2022-12-18T13:33:44;38.00;;;16.93;;
31786;SDS011;18356;52.380;9.820;2022-12-18T13:38:35;38.57;;;17.77;;
31786;SDS011;18356;52.380;9.820;2022-12-18T13:41:02;47.63;;;21.73;;
31786;SDS011;18356;52.380;9.820;2022-12-18T13:43:48;46.87;;;18.50;;
31786;SDS011;18356;52.380;9.820;2022-12-18T13:46:21;47.80;;;19.80;;
31786;SDS011;18356;52.380;9.820;2022-12-18T13:48:55;45.17;;;18.70;;
31786;SDS011;18356;52.380;9.820;2022-12-18T13:51:22;43.43;;;18.47;;
31786;SDS011;18356;52.380;9.820;2022-12-18T13:56:16;35.50;;;17.07;;
31786;SDS011;18356;52.380;9.820;2022-12-18T13:58:42;42.40;;;19.60;;
31786;SDS011;18356;52.380;9.820;2022-12-18T14:01:24;45.43;;;20.20;;
31786;SDS011;18356;52.380;9.820;2022-12-18T14:04:08;41.87;;;18.00;;
31786;SDS011;18356;52.380;9.820;2022-12-18T14:06:34;43.70;;;18.53;;
31786;SDS011;18356;52.380;9.820;2022-12-18T14:09:00;44.17;;;19.23;;
31786;SDS011;18356;52.380;9.820;2022-12-18T14:11:28;45.47;;;19.50;;
31786;SDS011;18356;52.380;9.820;2022-12-18T14:13:55;49.10;;;20.20;;
31786;SDS011;18356;52.380;9.820;2022-12-18T14:16:22;41.43;;;18.77;;
31786;SDS011;18356;52.380;9.820;2022-12-18T14:18:50;38.93;;;18.03;;
31786;SDS011;18356;52.380;9.820;2022-12-18T14:21:28;44.00;;;18.63;;
31786;SDS011;18356;52.380;9.820;2022-12-18T14:24:06;41.30;;;18.60;;
31786;SDS011;18356;52.380;9.820;2022-12-18T14:26:38;37.23;;;17.13;;
31786;SDS011;18356;52.380;9.820;2022-12-18T14:34:33;44.67;;;19.97;;
31786;SDS011;18356;52.380;9.820;2022-12-18T14:36:59;48.37;;;20.30;;
31786;SDS011;18356;52.380;9.820;2022-12-18T14:39:25;50.60;;;21.73;;
31786;SDS011;18356;52.380;9.820;2022-12-18T14:41:51;66.57;;;28.20;;
31786;SDS011;18356;52.380;9.820;2022-12-18T14:44:17;46.90;;;21.87;;
31786;SDS011;18356;52.380;9.820;2022-12-18T14:46:44;42.10;;;19.40;;
31786;SDS011;18356;52.380;9.820;2022-12-18T14:51:47;43.37;;;19.07;;
31786;SDS011;18356;52.380;9.820;2022-12-18T14:54:17;48.77;;;20.73;;
31786;SDS011;18356;52.380;9.820;2022-12-18T14:56:47;46.57;;;20.03;;
31786;SDS011;18356;52.380;9.820;2022-12-18T15:01:45;44.93;;;20.00;;
31786;SDS011;18356;52.380;9.820;2022-12-18T15:04:45;49.70;;;21.50;;
31786;SDS011;18356;52.380;9.820;2022-12-18T15:09:34;45.43;;;20.73;;
31786;SDS011;18356;52.380;9.820;2022-12-18T15:12:00;45.90;;;21.57;;
31786;SDS011;18356;52.380;9.820;2022-12-18T15:16:59;50.03;;;21.03;;
31786;SDS011;18356;52.380;9.820;2022-12-18T15:19:34;52.00;;;19.03;;
31786;SDS011;18356;52.380;9.820;2022-12-18T15:22:01;45.27;;;20.03;;
31786;SDS011;18356;52.380;9.820;2022-12-18T15:24:29;42.47;;;18.60;;
31786;SDS011;18356;52.380;9.820;2022-12-18T15:26:56;43.53;;;19.83;;
31786;SDS011;18356;52.380;9.820;2022-12-18T15:29:22;46.40;;;20.07;;
31786;SDS011;18356;52.380;9.820;2022-12-18T15:32:05;42.50;;;18.57;;
31786;SDS011;18356;52.380;9.820;2022-12-18T15:34:31;52.03;;;22.20;;
31786;SDS011;18356;52.380;9.820;2022-12-18T15:36:59;44.20;;;20.90;;
31786;SDS011;18356;52.380;9.820;2022-12-18T15:39:25;46.40;;;20.90;;
31786;SDS011;18356;52.380;9.820;2022-12-18T15:41:51;48.60;;;21.57;;
31786;SDS011;18356;52.380;9.820;2022-12-18T15:44:35;48.87;;;22.43;;
31786;SDS011;18356;52.380;9.820;2022-12-18T15:47:02;41.63;;;17.67;;
31786;SDS011;18356;52.380;9.820;2022-12-18T15:49:28;49.40;;;21.63;;
31786;SDS011;18356;52.380;9.820;2022-12-18T15:51:58;50.57;;;21.37;;
31786;SDS011;18356;52.380;9.820;2022-12-18T15:54:25;46.00;;;20.40;;
31786;SDS011;18356;52.380;9.820;2022-12-18T15:57:10;39.77;;;19.13;;
31786;SDS011;18356;52.380;9.820;2022-12-18T15:59:48;46.53;;;20.93;;
31786;SDS011;18356;52.380;9.820;2022-12-18T16:02:16;47.10;;;22.23;;
31786;SDS011;18356;52.380;9.820;2022-12-18T16:04:42;47.37;;;22.60;;
31786;SDS011;18356;52.380;9.820;2022-12-18T16:07:08;45.33;;;19.10;;
31786;SDS011;18356;52.380;9.820;2022-12-18T16:09:35;55.00;;;23.67;;
31786;SDS011;18356;52.380;9.820;2022-12-18T16:12:01;50.30;;;22.17;;
31786;SDS011;18356;52.380;9.820;2022-12-18T16:14:28;54.87;;;21.97;;
31786;SDS011;18356;52.380;9.820;2022-12-18T16:16:55;49.93;;;22.83;;
31786;SDS011;18356;52.380;9.820;2022-12-18T16:19:21;49.47;;;22.90;;
31786;SDS011;18356;52.380;9.820;2022-12-18T16:21:48;47.03;;;22.20;;